Terminal Aerodrome Forecast
Issued by NWS Upton, NY

Home | Current Version | Previous Version | Text Only | Print | Product List | Glossary On
Versions: 1 2 3 4 5 6 7 8 9 10 11 12 13 14 15 16 17 18 19 20 21 22 23 24 25 26 27 28 29 30 31 32 33
000
FTUS41 KOKX 011943 AAA
TAFBDR
TAF AMD
KBDR 011943Z 0120/0218 03011KT P6SM -DZ OVC015
     FM020600 03006KT 6SM -DZ BR OVC009
     FM021100 VRB04KT 4SM -DZ BR OVC006=

USA.gov is the U.S. government's official web portal to all federal, state and local government web resources and services.